Mary Alice, KY (40964)

9:40 PM EST on January 26, 2015 (GMT -0500)
White Rocks View | Change Station
CLOSE
Current Station
Personal Weather Station
Location: Rose Hill, VA
Elevation: 1470 ft
Nearby Weather Stations
Active Advisory: Special Statement

Elev 1470 ft 36.65 °N, 83.40 °W | Updated 6 seconds ago

Overcast
Overcast
28.1 °F
Feels Like 28 °F
N
3.0
Wind Variable Wind from SSW
Gusts 5.0 mph

Today
High -- | Low -- °F
--% Chance of Precip.
Yesterday
High -- | Low -- °F
Precip. -- in
7:40 AM 5:52 PM
Waxing Crescent, 49% visible
Pressure 29.91 in
Visibility 10.0 miles
Clouds Overcast 1200 ft
Windchill 28 °F
Dew Point 24 °F
Humidity 86%
Rainfall 0.17 in
Snow Depth Not available.
UV 0 out of 12
Pollen .10 out of 12
Air Quality Not available.
Flu Activity Not available.
METAR KI35 270215Z AUTO 27003KT 10SM OVC012 M01/M04 A2991 RMK AO1

More Conditions Fewer Conditions

Pressure 29.91 in
Visibility 10.0 miles
Clouds Overcast 1200 ft
Windchill 28 °F
Dew Point 24 °F
Humidity 86%
Rainfall 0.17 in
Snow Depth Not available.
UV 0 out of 12
Pollen .10 out of 12
Air Quality Not available.
Flu Activity Not available.
METAR KI35 270215Z AUTO 27003KT 10SM OVC012 M01/M04 A2991 RMK AO1

More Conditions Fewer Conditions

10-Day Weather Forecast

Almanac

Astronomy

Jan. 26, 2015 Rise Set
Actual Time
Civil Twilight
Nautical Twilight
Astronomical Twilight
Moon
Length of Visible Light
Length of Day
Tomorrow will be .
, % of the Moon is Illuminated

Today's Extremes

State Highs State Lows

Community

WunderPhotos

Upload Photos

1,790,484 photos uploaded!

WunderBlogs® & News

Nearby

Air Quality

  Air Quality AQ Index Pollutant
Not available.

Snow Depth

Station Depth Elevation

Earthquake Activity

City Distance Mag. Time & Date
Minimum magnitude displayed is 2.5.

Coastal Water Temperatures

Place Temperature

Nearby Weather Stations